Time;durP1;ratioP1;P1;durP2;ratioP2;P2;SDS_P1;SDS_P2;PMS_P1;PMS_P2;Temp;Humidity;BMP_temperature;BMP_pressure;BME280_temperature;BME280_humidity;BME280_pressure;Samples;Min_cycle;Max_cycle;Signal;HPM_P1;HPM_P2
2023/01/18 09:35:34;;;;;;;1.30;0.60;;;;;;;8.36;59.64;97498.84;4886437;27;20074;31
2023/01/18 09:37:59;;;;;;;1.42;0.80;;;;;;;8.17;59.63;97506.81;4329042;33;20139;-93
2023/01/18 09:40:40;;;;;;;1.83;1.00;;;;;;;8.11;59.62;97496.81;4318787;33;20135;-94
2023/01/18 09:43:28;;;;;;;2.47;1.42;;;;;;;8.23;59.64;97496.06;4307173;33;20104;-94
2023/01/18 09:45:54;;;;;;;2.97;1.73;;;;;;;8.35;59.64;97519.66;4320384;33;20907;-94
2023/01/18 09:48:29;;;;;;;2.08;1.52;;;;;;;8.33;59.64;97524.91;4306451;33;20096;-94
2023/01/18 09:50:55;;;;;;;3.95;1.70;;;;;;;8.54;59.65;97526.28;4296755;33;20150;-94
2023/01/18 09:53:39;;;;;;;3.58;2.20;;;;;;;8.65;59.65;97525.63;4306570;33;20104;-93
2023/01/18 09:56:30;;;;;;;3.37;1.92;;;;;;;8.79;59.67;97522.22;4316459;33;20131;-94
2023/01/18 09:59:18;;;;;;;3.83;2.03;;;;;;;8.83;59.67;97514.16;4291899;33;20109;-94
2023/01/18 10:01:43;;;;;;;3.80;2.12;;;;;;;8.96;59.67;97514.22;4301818;33;20155;-94
2023/01/18 10:04:16;;;;;;;3.30;2.15;;;;;;;8.80;59.66;97516.09;4300354;33;20107;-94
2023/01/18 10:07:04;;;;;;;3.10;1.77;;;;;;;8.91;59.67;97522.28;4304217;33;20104;-94
2023/01/18 10:09:38;;;;;;;3.08;2.00;;;;;;;9.04;59.68;97534.53;4304072;33;20221;-94
2023/01/18 10:12:50;;;;;;;3.58;1.95;;;;;;;9.01;59.67;97538.16;4292024;33;20125;-93
2023/01/18 10:15:19;;;;;;;4.68;2.05;;;;;;;9.09;59.68;97550.66;4275951;33;20147;-93
2023/01/18 10:17:45;;;;;;;3.35;1.73;;;;;;;8.78;59.67;97551.69;4295176;33;20076;-94
2023/01/18 10:20:13;;;;;;;3.58;2.30;;;;;;;9.03;59.68;97570.03;4299904;33;20107;-93
2023/01/18 10:22:58;;;;;;;2.33;1.75;;;;;;;9.02;59.68;97570.13;4313599;33;20101;-94
2023/01/18 10:25:32;;;;;;;1.90;1.45;;;;;;;9.14;59.68;97562.41;4327114;33;20072;-94
2023/01/18 10:27:57;;;;;;;3.12;1.65;;;;;;;9.29;59.70;97558.06;4296668;33;20104;-94
2023/01/18 10:30:27;;;;;;;3.67;1.52;;;;;;;9.41;59.70;97559.88;4315870;33;20100;-94
2023/01/18 10:32:54;;;;;;;;;;;;;;;9.29;59.70;97571.03;4316067;33;20144;-94
2023/01/18 10:35:28;;;;;;;2.40;1.33;;;;;;;9.54;59.70;97557.34;4303935;33;19976;-94
2023/01/18 10:37:55;;;;;;;1.55;0.90;;;;;;;9.38;59.69;97557.47;4291452;33;20076;-95
2023/01/18 10:40:21;;;;;;;1.55;1.02;;;;;;;9.37;59.69;97576.56;4292967;33;20073;-95
2023/01/18 10:42:49;;;;;;;2.50;1.25;;;;;;;9.31;59.69;97589.09;4295301;33;20112;-94
2023/01/18 10:45:22;;;;;;;2.08;1.23;;;;;;;9.36;59.70;97597.44;4293340;33;20100;-94
2023/01/18 10:47:49;;;;;;;2.42;1.37;;;;;;;9.31;59.69;97594.31;4293168;33;20076;-94
2023/01/18 10:50:21;;;;;;;1.95;1.20;;;;;;;9.47;59.70;97608.03;4293425;33;20097;-93
2023/01/18 10:52:46;;;;;;;2.12;1.25;;;;;;;9.66;59.71;97618.06;4305230;33;20139;-94
2023/01/18 10:55:14;;;;;;;1.67;1.00;;;;;;;9.68;59.72;97637.84;4292995;33;20097;-94
2023/01/18 10:57:48;;;;;;;2.70;1.23;;;;;;;9.66;59.72;97636.25;4293095;33;20126;-95
2023/01/18 11:00:20;;;;;;;2.92;1.58;;;;;;;9.77;59.72;97646.84;4293206;33;20139;-94
2023/01/18 11:02:45;;;;;;;1.95;1.27;;;;;;;9.99;59.73;97648.94;4314741;33;20226;-94
2023/01/18 11:05:21;;;;;;;1.48;1.12;;;;;;;9.90;59.73;97652.09;4297942;33;20128;-95
2023/01/18 11:07:47;;;;;;;2.78;1.60;;;;;;;9.94;59.74;97646.63;4305337;33;20092;-94
2023/01/18 11:10:26;;;;;;;2.20;1.12;;;;;;;9.89;59.73;97651.25;4292866;33;20150;-94
2023/01/18 11:12:53;;;;;;;2.08;1.33;;;;;;;10.02;59.73;97651.34;4283678;33;20135;-95
2023/01/18 11:15:18;;;;;;;2.62;1.45;;;;;;;9.99;59.73;97657.56;4293203;33;20118;-94
2023/01/18 11:17:56;;;;;;;2.67;1.58;;;;;;;10.01;59.73;97666.09;4317180;33;20096;-94
2023/01/18 11:20:24;;;;;;;2.67;1.50;;;;;;;10.23;59.74;97677.78;4316903;33;20138;-94
2023/01/18 11:22:57;;;;;;;2.58;1.45;;;;;;;10.30;59.75;97679.88;4304978;33;20111;-93
2023/01/18 11:25:22;;;;;;;1.85;1.15;;;;;;;10.27;59.75;97682.66;4305345;33;20119;-94
2023/01/18 11:27:48;;;;;;;2.40;1.40;;;;;;;10.25;59.75;97681.09;4305353;33;20104;-95
2023/01/18 11:30:20;;;;;;;4.72;1.40;;;;;;;10.27;59.74;97687.03;4293632;33;20109;-94
2023/01/18 11:32:46;;;;;;;1.85;1.10;;;;;;;10.31;59.74;97688.50;4294206;33;20116;-94
2023/01/18 11:35:27;;;;;;;2.37;1.20;;;;;;;10.32;59.75;97697.97;4293530;33;20475;-94
2023/01/18 11:37:52;;;;;;;2.95;1.30;;;;;;;10.12;59.74;97702.62;4305480;33;20666;-93
2023/01/18 11:40:17;;;;;;;2.12;1.50;;;;;;;10.26;59.75;97706.19;4293269;33;20122;-94
2023/01/18 11:42:43;;;;;;;2.80;1.55;;;;;;;10.33;59.75;97703.06;4320726;33;20115;-94
2023/01/18 11:45:36;;;;;;;2.15;1.23;;;;;;;10.32;59.75;97711.81;4296395;33;20431;-94
2023/01/18 11:48:25;;;;;;;2.50;1.40;;;;;;;10.30;59.74;97718.88;4317436;33;20060;-95
2023/01/18 11:50:59;;;;;;;2.85;1.50;;;;;;;10.37;59.75;97734.91;4305612;33;20128;-93
2023/01/18 11:53:42;;;;;;;2.85;1.80;;;;;;;10.50;59.76;97733.22;4309108;33;20100;-95
2023/01/18 11:56:17;;;;;;;3.47;1.58;;;;;;;10.55;59.75;97740.72;4307108;33;20895;-95
2023/01/18 11:58:42;;;;;;;1.73;1.05;;;;;;;10.54;59.75;97736.47;4317231;33;20124;-94
2023/01/18 12:01:26;;;;;;;1.92;1.20;;;;;;;10.67;59.77;97734.75;4293041;33;20664;-95
2023/01/18 12:03:59;;;;;;;2.90;1.15;;;;;;;10.59;59.76;97743.03;4317262;33;20532;-95
2023/01/18 12:06:35;;;;;;;2.75;1.30;;;;;;;10.70;59.78;97750.16;4305435;33;20092;-95
2023/01/18 12:09:26;;;;;;;2.42;1.15;;;;;;;10.86;59.78;97761.22;4293356;33;20102;-94
2023/01/18 12:12:21;;;;;;;1.85;1.10;;;;;;;10.72;59.77;97762.13;4311319;33;20718;-93
2023/01/18 12:15:17;;;;;;;3.03;1.20;;;;;;;10.86;59.78;97760.41;4298371;33;20128;-94
2023/01/18 12:17:55;;;;;;;2.83;1.15;;;;;;;10.90;59.78;97770.53;4307856;33;20118;-95
2023/01/18 12:20:49;;;;;;;3.20;0.90;;;;;;;10.95;59.79;97776.28;4309587;33;20100;-94
2023/01/18 12:23:42;;;;;;;1.65;1.02;;;;;;;11.10;59.79;97784.84;4306607;33;20135;-94
2023/01/18 12:26:23;;;;;;;2.37;0.93;;;;;;;11.17;59.79;97778.31;4317411;33;20134;-95
2023/01/18 12:29:02;;;;;;;1.92;1.20;;;;;;;11.17;59.79;97783.53;4313692;33;20057;-94
2023/01/18 12:31:46;;;;;;;1.80;1.15;;;;;;;11.29;59.79;97774.87;4301647;33;20068;-94
2023/01/18 12:34:37;;;;;;;1.83;1.30;;;;;;;11.32;59.80;97785.09;4321789;33;20105;-94
2023/01/18 12:37:48;;;;;;;1.92;1.15;;;;;;;11.45;59.80;97795.56;4303123;33;20138;-94
2023/01/18 12:40:30;;;;;;;5.22;1.90;;;;;;;11.41;59.81;97806.28;4294150;33;20858;-94
2023/01/18 12:43:01;;;;;;;2.28;1.60;;;;;;;11.12;59.79;97819.44;4305955;33;20413;-94
2023/01/18 12:45:54;;;;;;;2.12;1.27;;;;;;;11.21;59.79;97811.03;4316609;33;20160;-94
2023/01/18 12:48:31;;;;;;;3.20;1.67;;;;;;;11.01;59.79;97817.53;4316801;33;20138;-95
2023/01/18 12:50:57;;;;;;;2.20;1.60;;;;;;;11.26;59.80;97813.31;4292235;33;20089;-94
2023/01/18 12:53:44;;;;;;;3.05;1.50;;;;;;;11.30;59.80;97812.19;4292436;33;20151;-95
2023/01/18 12:56:13;;;;;;;3.03;1.35;;;;;;;11.33;59.81;97809.38;4292481;33;20127;-94
2023/01/18 12:58:39;;;;;;;2.00;1.30;;;;;;;11.30;59.80;97820.00;4293335;33;20120;-95
2023/01/18 13:01:04;;;;;;;2.20;1.30;;;;;;;11.27;59.80;97833.22;4292451;33;20131;-94
2023/01/18 13:03:50;;;;;;;2.35;1.52;;;;;;;11.29;59.79;97833.94;4296228;33;20142;-94
2023/01/18 13:06:17;;;;;;;2.70;1.87;;;;;;;11.30;59.79;97851.25;4311701;33;20143;-96
2023/01/18 13:08:44;;;;;;;8.65;2.37;;;;;;;11.31;59.81;97858.97;4300121;33;20099;-94
2023/01/18 13:11:18;;;;;;;10.70;4.35;;;;;;;11.35;59.80;97863.03;4304752;33;20093;-94
2023/01/18 13:13:44;;;;;;;9.10;3.80;;;;;;;11.32;59.81;97860.63;4304272;33;20188;-95
2023/01/18 13:16:39;;;;;;;4.95;2.78;;;;;;;11.33;59.81;97864.06;4292131;33;20120;-93
2023/01/18 13:19:21;;;;;;;2.75;1.65;;;;;;;11.46;59.82;97866.72;4292423;33;20135;-95
2023/01/18 13:21:59;;;;;;;4.10;2.12;;;;;;;11.30;59.79;97872.91;4292639;33;20871;-94
2023/01/18 13:24:39;;;;;;;3.17;2.00;;;;;;;11.38;59.81;97891.50;4316953;33;20500;-94
2023/01/18 13:27:09;;;;;;;3.03;2.10;;;;;;;11.43;59.81;97904.22;4318185;33;20126;-94
2023/01/18 13:29:34;;;;;;;5.10;1.73;;;;;;;11.36;59.80;97909.00;4298225;33;20108;-93
2023/01/18 13:32:00;;;;;;;2.30;1.70;;;;;;;11.52;59.81;97908.00;4292283;33;20164;-94
2023/01/18 13:34:34;;;;;;;2.90;1.40;;;;;;;11.35;59.80;97904.72;4292018;33;20115;-94
2023/01/18 13:37:01;;;;;;;4.22;1.40;;;;;;;11.44;59.81;97899.88;4299313;33;20126;-94
2023/01/18 13:39:26;;;;;;;3.22;1.77;;;;;;;11.41;59.81;97910.47;4298107;33;20176;-93
2023/01/18 13:41:58;;;;;;;2.75;1.77;;;;;;;11.45;59.81;97911.94;4306488;33;20149;-93
2023/01/18 13:44:44;;;;;;;6.40;1.67;;;;;;;11.42;59.80;97905.16;4318578;33;20088;-93
2023/01/18 13:47:44;;;;;;;2.78;1.55;;;;;;;11.31;59.80;97905.84;4299392;33;20709;-94
2023/01/18 13:50:33;;;;;;;2.65;1.75;;;;;;;11.18;59.80;97894.56;4314099;33;20507;-94
2023/01/18 13:53:14;;;;;;;2.40;1.40;;;;;;;11.11;59.79;97902.84;4328596;33;20099;-93
2023/01/18 13:55:58;;;;;;;4.03;1.83;;;;;;;11.04;59.79;97915.41;4318623;33;20068;-94
2023/01/18 13:58:24;;;;;;;5.03;2.65;;;;;;;10.98;59.78;97926.22;4302537;33;20734;-95
2023/01/18 14:00:50;;;;;;;5.30;2.83;;;;;;;11.02;59.79;97930.31;4319255;33;20786;-95
2023/01/18 14:03:20;;;;;;;3.47;2.25;;;;;;;10.94;59.79;97929.97;4294177;33;20103;-94
2023/01/18 14:05:47;;;;;;;3.28;1.98;;;;;;;11.12;59.79;97925.34;4306106;33;20118;-93
2023/01/18 14:08:21;;;;;;;4.35;1.92;;;;;;;11.21;59.79;97923.00;4294549;33;20112;-93
2023/01/18 14:10:47;;;;;;;7.97;2.90;;;;;;;11.19;59.80;97937.06;4296952;33;20112;-94
2023/01/18 14:13:14;;;;;;;4.65;2.58;;;;;;;11.11;59.79;97937.53;4295129;33;20096;-93
2023/01/18 14:15:42;;;;;;;3.62;2.67;;;;;;;10.90;59.78;97947.53;4297576;33;20178;-93
2023/01/18 14:18:27;;;;;;;8.45;4.10;;;;;;;11.04;59.79;97949.25;4313208;33;192361;-93
2023/01/18 14:21:10;;;;;;;5.30;2.83;;;;;;;11.08;59.80;97953.34;4314946;33;20107;-94
2023/01/18 14:24:00;;;;;;;8.18;2.90;;;;;;;11.00;59.79;97955.59;4310210;33;20102;-93
2023/01/18 14:26:27;;;;;;;5.93;2.67;;;;;;;10.97;59.78;97959.22;4318316;33;20091;-93
2023/01/18 14:28:58;;;;;;;4.50;2.37;;;;;;;10.79;59.78;97965.56;4305856;33;20433;-93
2023/01/18 14:31:44;;;;;;;4.62;2.30;;;;;;;10.53;59.76;97967.16;4294011;33;20104;-93
2023/01/18 14:34:45;;;;;;;4.30;2.75;;;;;;;10.64;59.77;97958.69;4300136;33;20088;-94
2023/01/18 14:37:27;;;;;;;4.65;2.70;;;;;;;10.56;59.77;97966.13;4258991;33;20108;-94
2023/01/18 14:40:03;;;;;;;3.62;2.53;;;;;;;10.37;59.75;97969.81;4300358;33;20116;-94
2023/01/18 14:42:33;;;;;;;5.93;3.50;;;;;;;10.23;59.74;97977.62;4306257;33;20137;-94
2023/01/18 14:44:58;;;;;;;6.68;3.80;;;;;;;10.30;59.74;97988.50;4294815;33;20143;-95
2023/01/18 14:47:24;;;;;;;6.40;3.83;;;;;;;10.23;59.74;98007.97;4312088;33;20104;-94
2023/01/18 14:49:49;;;;;;;14.13;7.03;;;;;;;10.19;59.75;98003.87;4305665;33;20200;-94
2023/01/18 14:52:16;;;;;;;12.70;6.45;;;;;;;10.37;59.75;97995.00;4300018;33;20379;-94
2023/01/18 14:54:54;;;;;;;28.67;8.82;;;;;;;10.07;59.74;97995.00;4293495;33;20095;-94
2023/01/18 14:57:20;;;;;;;20.48;11.90;;;;;;;10.12;59.74;98001.59;4293991;33;20108;-94
2023/01/18 15:00:02;;;;;;;12.13;7.05;;;;;;;10.21;59.74;97994.25;4295120;33;20786;-94
2023/01/18 15:02:36;;;;;;;16.10;7.87;;;;;;;10.19;59.75;97996.91;4294167;33;20108;-94
2023/01/18 15:05:09;;;;;;;16.02;8.32;;;;;;;10.16;59.74;97991.84;4293663;33;20072;-93
2023/01/18 15:07:37;;;;;;;22.52;9.77;;;;;;;10.08;59.73;97992.31;4293585;33;20104;-94
2023/01/18 15:10:03;;;;;;;22.15;11.10;;;;;;;10.18;59.75;97991.78;4305407;33;20175;-93
2023/01/18 15:12:30;;;;;;;18.55;9.65;;;;;;;10.17;59.75;97985.72;4295374;33;20191;-93
2023/01/18 15:14:58;;;;;;;16.05;6.68;;;;;;;10.18;59.75;97984.00;4298825;33;20898;-94
2023/01/18 15:17:23;;;;;;;9.40;5.60;;;;;;;10.09;59.73;97977.53;4295159;33;20104;-94
2023/01/18 15:19:57;;;;;;;11.20;6.68;;;;;;;9.98;59.73;97975.59;4305464;33;20175;-93
2023/01/18 15:22:28;;;;;;;14.52;7.45;;;;;;;9.94;59.73;97973.25;4293880;33;20085;-94
2023/01/18 15:28:19;;;;;;;13.25;7.00;;;;;;;9.87;59.73;97990.94;4307299;33;20100;-94
2023/01/18 15:30:52;;;;;;;12.73;7.62;;;;;;;9.90;59.73;97987.31;4295474;33;20138;-93
2023/01/18 15:33:19;;;;;;;12.02;6.35;;;;;;;9.79;59.73;97987.94;4295821;33;20124;-94
2023/01/18 15:35:44;;;;;;;9.93;6.25;;;;;;;9.68;59.72;97985.94;4298353;33;20159;-93
2023/01/18 15:38:10;;;;;;;10.32;6.57;;;;;;;9.44;59.70;97998.53;4311706;33;20095;-92
2023/01/18 15:40:36;;;;;;;15.50;7.35;;;;;;;9.43;59.70;98002.06;4299459;33;20100;-93
2023/01/18 15:43:04;;;;;;;17.67;11.93;;;;;;;9.47;59.70;98018.34;4297107;33;20107;-93
2023/01/18 15:45:36;;;;;;;55.50;37.25;;;;;;;9.48;59.70;98023.44;4295910;33;20100;-94
2023/01/18 15:48:12;;;;;;;61.35;38.95;;;;;;;9.44;59.70;98027.09;4300922;33;20088;-93
2023/01/18 15:50:43;;;;;;;40.75;26.17;;;;;;;9.47;59.70;98039.94;4308200;33;20123;-94
2023/01/18 15:53:13;;;;;;;50.47;29.65;;;;;;;9.46;59.70;98038.28;4284645;33;20116;-93
2023/01/18 15:55:48;;;;;;;33.67;18.90;;;;;;;9.61;59.71;98039.19;4295570;33;20186;-93
2023/01/18 15:58:33;;;;;;;18.62;10.68;;;;;;;9.58;59.71;98041.94;4295128;33;20148;-94
2023/01/18 16:01:00;;;;;;;58.38;27.98;;;;;;;9.81;59.73;98025.91;4295573;33;20108;-94
2023/01/18 16:03:35;;;;;;;104.30;44.38;;;;;;;9.69;59.72;98030.94;4319704;33;20808;-94
2023/01/18 16:06:03;;;;;;;31.75;16.02;;;;;;;9.65;59.72;98032.03;4321227;33;20109;-94
2023/01/18 16:08:28;;;;;;;23.90;12.45;;;;;;;9.52;59.70;98058.72;4307510;33;20077;-94
2023/01/18 16:10:55;;;;;;;42.20;20.05;;;;;;;9.22;59.69;98075.91;4294778;33;20171;-94
2023/01/18 16:13:34;;;;;;;43.72;20.50;;;;;;;9.20;59.69;98085.56;4295022;33;20116;-94
2023/01/18 16:16:12;;;;;;;33.90;15.27;;;;;;;9.13;59.69;98076.41;4295183;33;20091;-94
2023/01/18 16:18:41;;;;;;;63.15;25.27;;;;;;;9.15;59.69;98085.81;4307353;33;20114;-93
2023/01/18 16:21:10;;;;;;;125.68;41.97;;;;;;;9.06;59.68;98086.28;4295134;33;20112;-94
2023/01/18 16:23:36;;;;;;;114.75;38.95;;;;;;;9.03;59.68;98085.63;4308948;33;20176;-93
2023/01/18 16:26:02;;;;;;;92.80;32.03;;;;;;;9.08;59.68;98079.25;4304378;33;20148;-93
2023/01/18 16:28:27;;;;;;;86.37;29.95;;;;;;;9.17;59.69;98076.16;4304497;33;20064;-94
2023/01/18 16:30:53;;;;;;;68.75;27.98;;;;;;;9.13;59.68;98076.41;4295385;33;20213;-94
2023/01/18 16:33:20;;;;;;;54.53;25.37;;;;;;;9.28;59.70;98073.03;4306676;33;20115;-93
2023/01/18 16:35:46;;;;;;;54.78;24.63;;;;;;;9.08;59.68;98073.22;4294979;33;20101;-94
2023/01/18 16:38:17;;;;;;;54.65;23.62;;;;;;;9.09;59.68;98067.97;4306358;33;20175;-94
2023/01/18 16:40:44;;;;;;;56.00;23.95;;;;;;;9.18;59.68;98074.41;4281966;33;20130;-93
2023/01/18 16:43:37;;;;;;;56.25;25.08;;;;;;;9.18;59.68;98085.63;4294670;33;20163;-94
2023/01/18 16:46:03;;;;;;;103.93;41.90;;;;;;;9.30;59.70;98081.56;4306752;33;20123;-94
2023/01/18 16:48:29;;;;;;;69.97;30.90;;;;;;;9.23;59.69;98073.28;4294656;33;20357;-94
2023/01/18 16:50:55;;;;;;;64.32;30.75;;;;;;;9.32;59.69;98065.91;4294369;33;20131;-94
2023/01/18 16:53:22;;;;;;;59.13;32.53;;;;;;;9.35;59.70;98061.38;4294688;33;20100;-94
2023/01/18 16:55:49;;;;;;;72.10;33.65;;;;;;;9.32;59.69;98084.91;4295049;33;20104;-94
2023/01/18 16:58:15;;;;;;;68.35;31.98;;;;;;;9.34;59.70;98090.03;4316067;33;20072;-95
2023/01/18 17:00:59;;;;;;;69.82;32.85;;;;;;;9.32;59.70;98092.69;4283268;33;20180;-94
2023/01/18 17:03:26;;;;;;;69.35;33.58;;;;;;;9.27;59.70;98091.28;4308319;33;20505;-94
2023/01/18 17:05:52;;;;;;;66.05;31.00;;;;;;;9.40;59.70;98097.47;4295026;33;20119;-94
2023/01/18 17:08:17;;;;;;;58.10;29.60;;;;;;;9.47;59.70;98091.06;4294939;33;20104;-94
2023/01/18 17:10:45;;;;;;;57.67;29.70;;;;;;;9.30;59.70;98093.72;4294735;33;20100;-94
2023/01/18 17:13:10;;;;;;;50.45;26.48;;;;;;;9.35;59.70;98083.91;4294403;33;20087;-95
2023/01/18 17:15:40;;;;;;;38.78;21.08;;;;;;;9.22;59.69;98092.34;4309242;33;20409;-95
2023/01/18 17:18:07;;;;;;;34.93;18.83;;;;;;;9.43;59.70;98092.94;4295559;33;20076;-94
2023/01/18 17:20:33;;;;;;;33.92;17.98;;;;;;;9.35;59.70;98096.88;4299709;33;20628;-94
2023/01/18 17:22:59;;;;;;;38.22;20.60;;;;;;;9.32;59.69;98116.06;4295934;33;20135;-95
2023/01/18 17:25:25;;;;;;;40.08;20.15;;;;;;;9.38;59.70;98127.88;4294910;33;20112;-93
2023/01/18 17:27:50;;;;;;;38.03;20.85;;;;;;;9.51;59.71;98134.13;4313192;33;20118;-94
2023/01/18 17:30:18;;;;;;;39.92;21.33;;;;;;;9.48;59.70;98145.50;4316278;33;20103;-94
2023/01/18 17:32:46;;;;;;;47.35;25.85;;;;;;;9.27;59.68;98143.22;4305542;33;20108;-94
2023/01/18 17:35:13;;;;;;;47.60;26.70;;;;;;;9.38;59.70;98143.47;4309354;33;20127;-95
2023/01/18 17:37:40;;;;;;;42.08;21.67;;;;;;;9.18;59.68;98149.69;4298969;33;20516;-94
2023/01/18 17:40:09;;;;;;;37.58;20.40;;;;;;;9.44;59.70;98164.75;4306673;33;20126;-95
2023/01/18 17:42:35;;;;;;;37.15;20.05;;;;;;;9.42;59.71;98157.97;4301900;33;20142;-93
2023/01/18 17:45:05;;;;;;;37.53;20.60;;;;;;;9.44;59.70;98162.16;4297030;33;20150;-94
2023/01/18 17:47:33;;;;;;;34.78;18.17;;;;;;;9.52;59.71;98169.56;4308145;33;20224;-93
2023/01/18 17:49:58;;;;;;;38.78;21.30;;;;;;;9.48;59.70;98168.03;4298987;33;20171;-94
2023/01/18 17:52:25;;;;;;;45.28;23.00;;;;;;;9.44;59.70;98175.12;4294606;33;20112;-93
2023/01/18 17:54:50;;;;;;;39.72;23.15;;;;;;;9.54;59.71;98172.91;4297142;33;20080;-94
2023/01/18 17:57:16;;;;;;;36.97;19.95;;;;;;;9.59;59.71;98170.06;4293480;33;20110;-94
2023/01/18 17:59:43;;;;;;;44.35;25.85;;;;;;;9.41;59.70;98190.88;4306023;33;20457;-94
2023/01/18 18:02:10;;;;;;;36.15;21.55;;;;;;;9.57;59.71;98180.53;4314796;33;20124;-95
2023/01/18 18:04:37;;;;;;;35.80;20.15;;;;;;;9.62;59.71;98191.53;4299540;33;20061;-94
2023/01/18 18:07:03;;;;;;;37.72;20.75;;;;;;;9.60;59.71;98195.13;4305255;33;20064;-95
2023/01/18 18:09:30;;;;;;;45.80;22.35;;;;;;;9.52;59.70;98182.53;4309354;33;20080;-95
2023/01/18 18:11:56;;;;;;;34.70;20.00;;;;;;;9.33;59.69;98193.03;4317088;33;20091;-94
2023/01/18 18:14:22;;;;;;;36.55;20.20;;;;;;;9.23;59.69;98190.09;4297467;33;20468;-94
2023/01/18 18:16:48;;;;;;;41.55;23.60;;;;;;;9.30;59.70;98195.81;4306461;33;20171;-94
2023/01/18 18:19:14;;;;;;;41.90;23.17;;;;;;;9.38;59.70;98200.59;4294017;33;20115;-95
2023/01/18 18:21:44;;;;;;;36.17;19.52;;;;;;;9.38;59.70;98183.25;4294520;33;20143;-95
2023/01/18 18:24:14;;;;;;;40.08;18.48;;;;;;;9.44;59.70;98175.12;4294367;33;20104;-95
2023/01/18 18:26:39;;;;;;;42.45;21.20;;;;;;;9.53;59.71;98172.06;4309589;33;20120;-95
2023/01/18 18:29:05;;;;;;;40.72;21.73;;;;;;;9.25;59.69;98174.44;4307925;33;20481;-96
2023/01/18 18:31:31;;;;;;;39.65;19.60;;;;;;;9.38;59.70;98167.66;4307221;33;20755;-95
2023/01/18 18:33:56;;;;;;;36.70;18.67;;;;;;;9.35;59.70;98177.38;4304168;33;20155;-94
2023/01/18 18:36:25;;;;;;;33.80;18.42;;;;;;;9.37;59.70;98168.59;4312780;33;20119;-95
2023/01/18 18:38:52;;;;;;;31.00;17.02;;;;;;;9.27;59.70;98172.59;4294450;33;20123;-96
2023/01/18 18:41:18;;;;;;;48.65;23.95;;;;;;;9.35;59.70;98165.25;4304575;33;20076;-96
2023/01/18 18:43:44;;;;;;;30.52;18.95;;;;;;;9.53;59.71;98155.66;4307188;33;20053;-96
2023/01/18 18:46:12;;;;;;;27.13;17.20;;;;;;;9.35;59.71;98154.03;4302741;33;20365;-94
2023/01/18 18:48:38;;;;;;;28.83;15.05;;;;;;;9.22;59.69;98149.44;4301703;33;20088;-95
2023/01/18 18:51:03;;;;;;;22.15;13.15;;;;;;;9.17;59.69;98150.63;4298168;33;20167;-95
2023/01/18 18:53:29;;;;;;;31.27;12.93;;;;;;;9.21;59.69;98146.94;4297802;33;20100;-95
2023/01/18 18:56:00;;;;;;;28.38;13.60;;;;;;;9.26;59.70;98150.16;4312697;33;20092;-95
2023/01/18 18:58:26;;;;;;;26.77;12.68;;;;;;;9.21;59.69;98157.31;4294665;33;20212;-93
2023/01/18 19:00:52;;;;;;;25.20;12.60;;;;;;;9.04;59.69;98158.22;4294821;33;20152;-95
2023/01/18 19:03:19;;;;;;;21.27;11.68;;;;;;;8.91;59.68;98160.56;4294376;33;20143;-95
2023/01/18 19:05:44;;;;;;;20.90;11.35;;;;;;;8.89;59.67;98167.59;4308145;33;20092;-94
2023/01/18 19:08:10;;;;;;;22.30;11.55;;;;;;;9.07;59.68;98165.84;4295182;33;20116;-93
2023/01/18 19:10:37;;;;;;;23.70;11.35;;;;;;;9.13;59.69;98173.31;4298791;33;20135;-93
2023/01/18 19:13:06;;;;;;;25.58;12.95;;;;;;;9.19;59.69;98172.97;4307962;33;20086;-93
2023/01/18 19:15:32;;;;;;;20.75;12.82;;;;;;;9.06;59.68;98173.69;4301335;33;20091;-91
2023/01/18 19:17:59;;;;;;;24.45;11.90;;;;;;;9.07;59.68;98165.00;4302411;33;20108;-93
2023/01/18 19:20:25;;;;;;;20.98;12.18;;;;;;;8.99;59.68;98162.81;4295248;33;20167;-94
2023/01/18 19:22:52;;;;;;;25.40;12.85;;;;;;;8.69;59.67;98164.31;4295728;33;20440;-93
2023/01/18 19:25:18;;;;;;;25.70;15.65;;;;;;;8.87;59.66;98159.06;4307075;33;20096;-93
2023/01/18 19:27:44;;;;;;;35.22;17.48;;;;;;;9.00;59.68;98158.44;4295308;33;20096;-94
2023/01/18 19:30:17;;;;;;;27.45;14.00;;;;;;;9.02;59.68;98151.41;4308052;33;20109;-95
2023/01/18 19:32:49;;;;;;;30.45;15.43;;;;;;;8.84;59.67;98154.03;4296301;33;20861;-94
2023/01/18 19:35:16;;;;;;;29.02;14.32;;;;;;;8.84;59.67;98158.38;4307408;33;20107;-94
2023/01/18 19:37:41;;;;;;;29.42;15.32;;;;;;;8.82;59.67;98160.22;4295435;33;20164;-94
2023/01/18 19:40:09;;;;;;;34.60;15.82;;;;;;;8.81;59.66;98154.19;4297671;33;20131;-94
2023/01/18 19:42:36;;;;;;;27.95;15.07;;;;;;;8.87;59.66;98156.47;4301931;33;20118;-94
2023/01/18 19:45:03;;;;;;;30.48;15.00;;;;;;;8.90;59.68;98163.25;4307660;33;20446;-93
2023/01/18 19:47:28;;;;;;;27.48;16.15;;;;;;;8.82;59.67;98166.25;4295509;33;20176;-94
2023/01/18 19:49:56;;;;;;;29.67;16.58;;;;;;;8.82;59.67;98171.44;4307031;33;20171;-94
2023/01/18 19:52:23;;;;;;;35.67;16.00;;;;;;;8.78;59.67;98174.25;4306297;33;20476;-94
2023/01/18 19:54:48;;;;;;;40.80;21.42;;;;;;;8.84;59.67;98164.41;4296274;33;20104;-94
2023/01/18 19:57:14;;;;;;;30.45;17.17;;;;;;;8.88;59.67;98163.31;4295459;33;20930;-95
2023/01/18 19:59:41;;;;;;;35.17;17.45;;;;;;;8.77;59.67;98164.78;4283526;33;20112;-95
2023/01/18 20:02:08;;;;;;;33.20;18.35;;;;;;;8.74;59.66;98172.69;4301803;33;20104;-93
2023/01/18 20:04:36;;;;;;;27.90;16.40;;;;;;;8.66;59.67;98173.09;4295543;33;20100;-95
2023/01/18 20:07:03;;;;;;;34.05;17.27;;;;;;;8.79;59.66;98179.37;4307700;33;20175;-95
2023/01/18 20:09:28;;;;;;;32.83;17.15;;;;;;;8.68;59.66;98188.56;4307434;33;20134;-96
2023/01/18 20:11:56;;;;;;;30.80;17.37;;;;;;;8.80;59.66;98181.03;4306858;33;20410;-93
2023/01/18 20:14:21;;;;;;;33.80;17.58;;;;;;;8.89;59.67;98183.16;4307340;33;20116;-94
2023/01/18 20:16:47;;;;;;;32.92;17.48;;;;;;;9.01;59.68;98184.31;4293796;33;20147;-94
2023/01/18 20:19:16;;;;;;;33.78;19.15;;;;;;;8.96;59.67;98173.31;4297139;33;20100;-94
2023/01/18 20:21:42;;;;;;;25.48;14.77;;;;;;;8.92;59.67;98172.63;4306658;33;20104;-93
2023/01/18 20:24:09;;;;;;;28.95;15.30;;;;;;;8.93;59.67;98171.72;4318467;33;20084;-94
2023/01/18 20:26:36;;;;;;;21.73;13.25;;;;;;;8.89;59.67;98177.13;4299660;33;20112;-95
2023/01/18 20:29:05;;;;;;;23.98;13.65;;;;;;;8.94;59.67;98175.16;4295052;33;20134;-91
2023/01/18 20:31:31;;;;;;;21.67;12.73;;;;;;;8.85;59.67;98175.62;4301039;33;20421;-94
2023/01/18 20:33:57;;;;;;;26.60;14.85;;;;;;;8.85;59.67;98170.44;4295674;33;20100;-94
2023/01/18 20:36:23;;;;;;;27.95;13.98;;;;;;;8.82;59.67;98166.25;4294745;33;20152;-94
2023/01/18 20:38:49;;;;;;;17.27;10.30;;;;;;;8.66;59.66;98148.91;4282358;33;20151;-95
2023/01/18 20:41:15;;;;;;;13.48;8.57;;;;;;;8.76;59.67;98157.94;4294310;33;20107;-94
2023/01/18 20:43:41;;;;;;;15.50;10.18;;;;;;;8.74;59.66;98157.97;4305631;33;20088;-94
2023/01/18 20:46:08;;;;;;;21.30;12.63;;;;;;;8.53;59.66;98162.50;4305612;33;20522;-95
2023/01/18 20:48:34;;;;;;;22.02;12.98;;;;;;;8.36;59.64;98161.63;4294681;33;20182;-94
2023/01/18 20:51:00;;;;;;;26.58;12.63;;;;;;;8.50;59.65;98166.97;4296844;33;20064;-94
2023/01/18 20:53:26;;;;;;;23.92;12.50;;;;;;;8.47;59.64;98167.97;4295277;33;20151;-94
2023/01/18 20:55:54;;;;;;;23.55;12.35;;;;;;;8.52;59.64;98172.94;4298161;33;20159;-94
2023/01/18 20:58:20;;;;;;;17.60;11.00;;;;;;;8.67;59.66;98179.13;4295156;33;20108;-95
2023/01/18 21:00:46;;;;;;;20.48;10.95;;;;;;;8.67;59.66;98179.97;4282670;33;20106;-95
2023/01/18 21:03:16;;;;;;;17.30;10.27;;;;;;;8.68;59.66;98186.81;4294956;33;20140;-93
2023/01/18 21:05:43;;;;;;;17.45;10.05;;;;;;;8.61;59.66;98172.50;4298962;33;20171;-93
2023/01/18 21:08:09;;;;;;;25.33;13.38;;;;;;;8.58;59.65;98177.81;4297109;33;20124;-94
2023/01/18 21:10:39;;;;;;;22.15;12.52;;;;;;;8.49;59.65;98176.50;4307110;33;20096;-95
2023/01/18 21:13:08;;;;;;;20.25;12.57;;;;;;;8.54;59.65;98171.97;4295092;33;20131;-94
2023/01/18 21:15:36;;;;;;;23.05;12.35;;;;;;;8.64;59.66;98167.16;4298856;33;20116;-94
2023/01/18 21:18:02;;;;;;;16.95;9.57;;;;;;;8.68;59.66;98167.81;4298110;33;20119;-94
2023/01/18 21:20:28;;;;;;;19.35;10.07;;;;;;;8.74;59.67;98147.59;4315088;33;20100;-94
2023/01/18 21:22:57;;;;;;;16.80;9.57;;;;;;;8.70;59.66;98140.06;4294902;33;20083;-96
2023/01/18 21:25:23;;;;;;;12.98;7.80;;;;;;;8.72;59.66;98133.87;4306778;33;20187;-94